Flight Track Log - Related Links

Times and Time Zones

All times are in EDT time to prevent confusion due to time zone crossing. See the ASQ6188 flight status page for this flight to view local times or setup timezone preferences in your user account.

Time Position Orientation Groundspeed Altitude Reporting Facility
EDT Latitude Longitude Course Direction KTS MPH feet Rate Location/Type
Thu 06:40:06 PM 29.9506 -95.3378 90° East 169 194 800  Level Houston Center
Thu 06:40:49 PM 29.9267 -95.3044 130° Southeast 198 228 1,900 1,603 Climbing Houston Center
Thu 06:42:02 PM 29.8828 -95.2319 125° Southeast 226 260 3,900 2,000 Climbing Houston Center
Thu 06:42:52 PM 29.8431 -95.1725 128° Southeast 268 308 6,000 2,274 Climbing Houston Center
Thu 06:43:00 PM 29.9834 -94.8019 90° East  Level FlightAware Approximate
Thu 06:44:00 PM 29.9833 -94.6690 90° East  Level FlightAware Approximate
Thu 06:44:06 PM 29.8403 -95.0750 92° East 279 321 8,600  Level Houston Center
Thu 06:45:00 PM 29.9834 -94.5361 90° East  Level FlightAware Approximate
Thu 06:45:08 PM 29.8489 -94.9825 84° East 287 330 10,600  Level Houston Center
Thu 06:46:10 PM 29.8586 -94.8814 84° East 313 360 11,700 1,065 Climbing Houston Center
Thu 06:47:12 PM 29.8697 -94.7692 83° East 348 400 12,800 1,056 Climbing Houston Center
Thu 06:48:15 PM 29.8819 -94.6503 83° East 369 425 13,900 1,200 Climbing Houston Center
Thu 06:49:17 PM 29.9019 -94.5056 81° East 379 436 15,300 1,258 Climbing Houston Center
Thu 06:50:19 PM 29.9194 -94.3919 80° East 380 437 16,500 1,210 Climbing Houston Center
Thu 06:51:21 PM 29.9403 -94.2722 79° East 381 438 17,800 1,210 Climbing Houston Center
Thu 06:52:23 PM 29.9614 -94.1533 78° East 380 437 19,000 1,210 Climbing Houston Center
Thu 06:53:25 PM 29.9869 -94.0114 78° East 379 436 20,300 1,210 Climbing Houston Center
Thu 06:54:27 PM 30.0072 -93.8925 79° East 380 437 21,500 1,065 Climbing Houston Center
Thu 06:55:29 PM 30.0286 -93.7722 78° East 384 442 22,500 968 Climbing Houston Center
Thu 06:56:31 PM 30.0478 -93.6522 80° East 384 442 23,500 968 Climbing Houston Center
Thu 06:57:33 PM 30.0681 -93.5325 79° East 385 443 24,500 1,113 Climbing Houston Center
Thu 06:58:35 PM 30.0928 -93.3892 79° East 385 443 25,800 1,113 Climbing Houston Center
Thu 06:59:37 PM 30.1122 -93.2692 79° East 385 443 26,800 968 Climbing Houston Center
Thu 07:00:39 PM 30.1336 -93.1506 78° East 382 440 27,800 968 Climbing Houston Center
Thu 07:01:41 PM 30.1553 -93.0314 78° East 382 440 28,800 1,016 Climbing Houston Center
Thu 07:02:43 PM 30.1792 -92.9128 77° East 382 440 29,900 1,113 Climbing Houston Center
Thu 07:03:45 PM 30.2072 -92.7703 77° East 381 438 31,100 1,113 Climbing Houston Center
Thu 07:04:47 PM 30.2300 -92.6525 77° East 379 436 32,200 1,016 Climbing Houston Center
Thu 07:05:49 PM 30.2525 -92.5350 77° East 377 434 33,200 968 Climbing Houston Center
Thu 07:06:51 PM 30.2758 -92.4194 77° East 373 429 34,200 871 Climbing Houston Center
Thu 07:07:53 PM 30.2956 -92.3050 79° East 367 422 35,000 384 Climbing Houston Center
Thu 07:08:56 PM 30.3233 -92.1617 77° East 377 434 35,000  Level Houston Center
Thu 07:09:58 PM 30.3475 -92.0339 78° East 399 459 35,000  Level Houston Center
Thu 07:11:00 PM 30.3722 -91.8986 78° East 422 486 35,000  Level Houston Center
Thu 07:12:02 PM 30.4025 -91.7606 76° East 438 504 35,000  Level Houston Center
Thu 07:13:04 PM 30.4786 -91.6469 52° Northeast 444 511 35,000  Level Houston Center
Thu 07:14:06 PM 30.5861 -91.5264 44° Northeast 449 517 35,000  Level Houston Center
Thu 07:15:08 PM 30.6825 -91.4397 38° Northeast 443 510 35,000  Level Houston Center
Thu 07:16:10 PM 30.7814 -91.3536 37° Northeast 443 510 35,000  Level Houston Center
Thu 07:17:12 PM 30.8797 -91.2653 38° Northeast 447 514 35,000  Level Houston Center
Thu 07:18:14 PM 30.9742 -91.1756 39° Northeast 443 510 35,000  Level Houston Center
Thu 07:19:16 PM 31.0736 -91.0672 43° Northeast 439 505 35,000  Level Houston Center
Thu 07:20:18 PM 31.1633 -90.9708 43° Northeast 437 503 35,000 -48 Level Houston Center
Thu 07:21:20 PM 31.2478 -90.8644 47° Northeast 443 510 34,900 -48 Descending Houston Center
Thu 07:22:22 PM 31.3297 -90.7547 49° Northeast 447 514 34,900 49 Level Houston Center
Thu 07:23:23 PM 31.4025 -90.6367 54° Northeast 447 514 35,000 49 Climbing Houston Center
Thu 07:24:25 PM 31.4850 -90.4908 56° Northeast 447 514 35,000  Level Houston Center
Thu 07:25:27 PM 31.5511 -90.3661 58° Northeast 450 518 35,000  Level Houston Center
Thu 07:26:29 PM 31.6186 -90.2417 57° Northeast 451 519 35,000  Level Houston Center
Thu 07:27:31 PM 31.6892 -90.1131 57° Northeast 465 535 35,000  Level Houston Center
Thu 07:28:33 PM 31.7639 -89.9889 55° Northeast 466 536 35,000  Level Houston Center
Thu 07:29:35 PM 31.8428 -89.8669 53° Northeast 468 539 35,000  Level Houston Center
Thu 07:30:36 PM 31.9322 -89.7258 53° Northeast 470 541 35,000  Level Houston Center
Thu 07:31:38 PM 32.0111 -89.6028 53° Northeast 469 540 35,000  Level Houston Center
Thu 07:32:40 PM 32.0900 -89.4797 53° Northeast 469 540 35,000  Level Houston Center
Thu 07:33:42 PM 32.1683 -89.3564 53° Northeast 469 540 35,000  Level Houston Center
Thu 07:34:56 PM 32.2658 -89.2025 53° Northeast 463 533 35,000  Level Memphis Center
Thu 07:35:55 PM 32.3417 -89.0764 55° Northeast 463 533 35,000  Level Memphis Center
Thu 07:36:55 PM 32.4217 -88.9544 52° Northeast 463 533 35,000  Level Memphis Center
Thu 07:37:55 PM 32.4997 -88.8278 54° Northeast 463 533 35,000  Level Memphis Center
Thu 07:38:55 PM 32.5794 -88.7006 53° Northeast 468 539 35,000  Level Memphis Center
Thu 07:41:20 PM 32.7742 -88.3819 54° Northeast 475 547 35,000  Level Atlanta Center
Thu 07:42:20 PM 32.8539 -88.2522 54° Northeast 480 552 35,000  Level Atlanta Center
Thu 07:43:20 PM 32.9292 -88.1222 55° Northeast 480 552 35,000  Level Atlanta Center
Thu 07:44:20 PM 33.0086 -87.9947 53° Northeast 480 552 35,000  Level Atlanta Center
Thu 07:45:20 PM 33.0897 -87.8669 53° Northeast 480 552 35,000  Level Atlanta Center
Thu 07:46:20 PM 33.1669 -87.7364 55° Northeast 485 558 35,000  Level Atlanta Center
Thu 07:47:20 PM 33.2458 -87.6081 54° Northeast 485 558 35,000  Level Atlanta Center
Thu 07:48:20 PM 33.3247 -87.4744 55° Northeast 485 558 35,000  Level Atlanta Center
Thu 07:49:20 PM 33.4056 -87.3408 54° Northeast 490 564 35,000  Level Atlanta Center
Thu 07:50:20 PM 33.4842 -87.2094 54° Northeast 490 564 35,000  Level Atlanta Center
Thu 07:51:20 PM 33.5628 -87.0778 54° Northeast 490 564 35,000  Level Atlanta Center
Thu 07:52:20 PM 33.6431 -86.9408 55° Northeast 490 564 35,000  Level Atlanta Center
Thu 07:53:20 PM 33.7317 -86.8164 49° Northeast 490 564 35,000  Level Atlanta Center
Thu 07:54:20 PM 33.8239 -86.6994 46° Northeast 484 557 35,000  Level Atlanta Center
Thu 07:55:20 PM 33.9183 -86.5772 47° Northeast 484 557 35,000  Level Atlanta Center
Thu 07:56:20 PM 34.0106 -86.4572 47° Northeast 489 563 35,000  Level Atlanta Center
Thu 07:57:20 PM 34.0944 -86.3264 52° Northeast 489 563 35,000  Level Atlanta Center
Thu 07:58:20 PM 34.1783 -86.1931 53° Northeast 489 563 35,000  Level Atlanta Center
Thu 07:59:20 PM 34.2597 -86.0619 53° Northeast 489 563 35,000  Level Atlanta Center
Thu 08:00:20 PM 34.3453 -85.9308 52° Northeast 489 563 35,000  Level Atlanta Center
Thu 08:01:20 PM 34.4267 -85.7992 53° Northeast 494 568 35,000  Level Atlanta Center
Thu 08:02:20 PM 34.5078 -85.6622 54° Northeast 494 568 35,000  Level Atlanta Center
Thu 08:03:20 PM 34.5867 -85.5250 55° Northeast 494 568 35,000  Level Atlanta Center
Thu 08:04:20 PM 34.6656 -85.3900 55° Northeast 494 568 35,000  Level Atlanta Center
Thu 08:05:20 PM 34.7358 -85.2469 59° Northeast 494 568 35,000  Level Atlanta Center
Thu 08:06:20 PM 34.8081 -85.1014 59° Northeast 494 568 35,000  Level Atlanta Center
Thu 08:07:20 PM 34.8803 -84.9553 59° Northeast 494 568 35,000  Level Atlanta Center
Thu 08:08:20 PM 34.9503 -84.8092 60° Northeast 494 568 35,000  Level Atlanta Center
Thu 08:09:20 PM 35.0178 -84.6628 61° Northeast 494 568 35,000  Level Atlanta Center
Thu 08:10:20 PM 35.1103 -84.5339 49° Northeast 489 563 35,000  Level Atlanta Center
Thu 08:11:20 PM 35.2231 -84.4456 33° Northeast 482 555 35,000  Level Atlanta Center
Thu 08:12:20 PM 35.3361 -84.3544 33° Northeast 482 555 35,000  Level Atlanta Center
Thu 08:13:20 PM 35.4489 -84.2656 33° Northeast 482 555 35,000  Level Atlanta Center
Thu 08:14:20 PM 35.5617 -84.1742 33° Northeast 482 555 35,000  Level Atlanta Center
Thu 08:15:20 PM 35.6767 -84.0847 32° Northeast 488 562 35,000  Level Atlanta Center
Thu 08:16:20 PM 35.7933 -84.0081 28° Northeast 482 555 35,000  Level Atlanta Center
Thu 08:17:20 PM 35.9122 -83.9336 27° Northeast 472 543 35,000  Level Atlanta Center
Thu 08:18:20 PM 36.0311 -83.8564 28° Northeast 467 537 35,000  Level Atlanta Center
Thu 08:19:52 PM 36.2111 -83.7381 28° Northeast 476 548 35,000  Level Indianapolis Center
Thu 08:20:54 PM 36.3261 -83.6628 28° Northeast 471 542 35,000  Level Indianapolis Center
Thu 08:21:56 PM 36.4411 -83.5878 28° Northeast 467 537 35,000  Level Indianapolis Center
Thu 08:22:57 PM 36.5675 -83.5067 27° Northeast 473 544 35,000  Level Indianapolis Center
Thu 08:23:59 PM 36.6828 -83.4317 28° Northeast 468 539 35,000  Level Indianapolis Center
Thu 08:25:01 PM 36.7978 -83.3550 28° Northeast 463 533 35,000  Level Indianapolis Center
Thu 08:26:03 PM 36.9153 -83.2786 27° Northeast 469 540 35,000  Level Indianapolis Center
Thu 08:27:04 PM 37.0322 -83.2008 28° Northeast 469 540 35,000  Level Indianapolis Center
Thu 08:28:06 PM 37.1511 -83.1236 27° Northeast 473 544 35,000  Level Indianapolis Center
Thu 08:29:08 PM 37.2658 -83.0450 29° Northeast 468 539 35,000  Level Indianapolis Center
Thu 08:30:10 PM 37.3828 -82.9661 28° Northeast 473 544 35,000  Level Indianapolis Center
Thu 08:31:11 PM 37.4986 -82.8883 28° Northeast 478 550 35,000  Level Indianapolis Center
Thu 08:32:13 PM 37.6333 -82.7969 28° Northeast 471 542 35,000  Level Indianapolis Center
Thu 08:33:15 PM 37.7500 -82.7178 28° Northeast 472 543 35,000  Level Indianapolis Center
Thu 08:34:17 PM 37.8661 -82.6386 28° Northeast 471 542 35,000  Level Indianapolis Center
Thu 08:35:19 PM 37.9831 -82.5586 28° Northeast 474 545 35,000  Level Indianapolis Center
Thu 08:36:20 PM 38.0997 -82.4792 28° Northeast 473 544 35,000  Level Indianapolis Center
Thu 08:37:22 PM 38.2194 -82.3969 28° Northeast 475 547 35,000  Level Indianapolis Center
Thu 08:38:24 PM 38.3353 -82.3164 29° Northeast 474 545 35,000  Level Indianapolis Center
Thu 08:39:26 PM 38.4522 -82.2350 29° Northeast 475 547 35,000 -146 Level Indianapolis Center
Thu 08:40:27 PM 38.5700 -82.1553 28° Northeast 476 548 34,700 -634 Descending Indianapolis Center
Thu 08:41:29 PM 38.6875 -82.0719 29° Northeast 477 549 33,700 -1,113 Descending Indianapolis Center
Thu 08:42:31 PM 38.8208 -81.9647 32° Northeast 466 536 32,400 -1,258 Descending Indianapolis Center
Thu 08:43:33 PM 38.9269 -81.8636 37° Northeast 469 540 31,100 -1,659 Descending Indianapolis Center
Thu 08:44:34 PM 39.0319 -81.7642 36° Northeast 464 534 29,000 -2,000 Descending Indianapolis Center
Thu 08:45:36 PM 39.1361 -81.6658 36° Northeast 461 531 27,000 -1,984 Descending Indianapolis Center
Thu 08:46:38 PM 39.2411 -81.5658 36° Northeast 465 535 24,900 -1,984 Descending Indianapolis Center
Thu 08:47:40 PM 39.3444 -81.4669 36° Northeast 462 532 22,900 -1,854 Descending Indianapolis Center
Thu 08:48:41 PM 39.4436 -81.3722 36° Northeast 444 511 21,100 -927 Descending Indianapolis Center
Thu 08:49:43 PM 39.5367 -81.2833 36° Northeast 418 481 21,000 -48 Descending Indianapolis Center
Thu 08:50:45 PM 39.6289 -81.1947 36° Northeast 413 475 21,000 -439 Level Indianapolis Center
Thu 08:51:46 PM 39.7217 -81.1039 37° Northeast 416 479 20,100 -1,610 Descending Indianapolis Center
Thu 08:52:48 PM 39.8314 -80.9986 36° Northeast 408 470 17,700 -1,984 Descending Indianapolis Center
Thu 08:53:50 PM 39.9158 -80.9153 37° Northeast 384 442 16,000 -1,787 Descending Indianapolis Center
Thu 08:54:22 PM 39.9667 -80.8675 36° Northeast 385 443 14,900 -2,348 Descending Cleveland Center
Thu 08:55:22 PM 40.0442 -80.7864 39° Northeast 373 429 12,400 -2,150 Descending Cleveland Center
Thu 08:56:22 PM 40.1172 -80.6997 42° Northeast 356 410 10,600 -1,200 Descending Cleveland Center
Thu 08:57:22 PM 40.1903 -80.6156 41° Northeast 351 404 10,000 -300 Descending Cleveland Center
Thu 08:58:22 PM 40.2611 -80.5342 41° Northeast 346 398 10,000 -100 Level Cleveland Center
Thu 08:59:22 PM 40.3278 -80.4578 41° Northeast 334 384 9,800 -950 Descending Cleveland Center
Thu 09:00:22 PM 40.3756 -80.3786 52° Northeast 300 345 8,100 -1,700 Descending Cleveland Center
Thu 09:01:22 PM 40.3961 -80.2942 72° East 277 319 6,400 -1,550 Descending Cleveland Center
Thu 09:02:22 PM 40.4231 -80.2067 68° East 277 319 5,000 -1,400 Descending Cleveland Center
Thu 09:04:00 PM 40.4833 -80.2167 270° West  Level FlightAware Approximate
Thu 09:11:00 PM 40.4915 -80.2329 270° West  Level Estimated

Login

Don't have an account? Register now (free) for customized features, flight alerts, and more!